Weather History for Centralia, IL

Change the Weather History Date:

Thursday, March 27, 2014

  Actual Average (KSLO) Record (KSLO)
Temperature  
Mean Temperature 48 °F -  
Max Temperature 58 °F 59 °F 82 °F (2007)
Min Temperature 38 °F 37 °F 20 °F (1964)
Degree Days  
Heating Degree Days 17    
Moisture  
Dew Point 36 °F    
Average Humidity 59    
Maximum Humidity 87    
Minimum Humidity 37    
Precipitation  
Precipitation 0.04 in - - ()
Sea Level Pressure  
Sea Level Pressure 29.82 in    
Wind  
Wind Speed 17 mph (SSE)    
Max Wind Speed 30 mph    
Max Gust Speed 40 mph    
Visibility 10 miles    
Events Rain , Thunderstorm    
Averages and records for this station are not official NWS values.
T = Trace of Precipitation, MM = Missing Value Source: NWS Daily Summary

Daily Weather History Graph

Daily Weather History Graph

Search for Another Location

Airport:

Trip Planner

Search our weather history database for the weather conditions in past years. The results will help you decide how hot, cold, wet, or windy it might be!

Date:

Astronomy

Mar. 27, 2014 Rise Set
Actual Time 6:48 AM CDT 7:15 PM CDT
Civil Twilight 6:22 AM CDT 7:41 PM CDT
Nautical Twilight 5:51 AM CDT 8:12 PM CDT
Astronomical Twilight 5:19 AM CDT 8:44 PM CDT
Moon 4:37 AM CDT (3/27) 4:04 PM CDT (3/27)
Length of Visible Light 13h 19m
Length of Day
12h 26m
Waning Crescent, 13% of the Moon is Illuminated
Mar 27
Waning Crescent
Mar 30
New
Apr 7
First Quarter
Apr 15
Full
Apr 22
Last Quarter

Hourly Weather History & Observations

Time (CDT) Temp. Windchill Dew Point Humidity Pressure Visibility Wind Dir Wind Speed Gust Speed Precip Events Conditions
12:15 AM 42.4 °F 36.5 °F 18.3 °F 38% 30.07 in 10.0 mi SE 10.4 mph - N/A   Scattered Clouds
12:35 AM 42.8 °F 35.1 °F 18.0 °F 37% 30.05 in 10.0 mi SE 16.1 mph 21.9 mph N/A   Scattered Clouds
12:55 AM 42.8 °F 35.8 °F 18.1 °F 37% 30.04 in 10.0 mi SE 13.8 mph - N/A   Overcast
1:15 AM 41.9 °F 35.4 °F 20.8 °F 43% 30.04 in 10.0 mi SSE 11.5 mph 16.1 mph N/A Rain Light Rain
1:35 AM 40.6 °F 33.4 °F 23.7 °F 51% 30.03 in 10.0 mi SE 12.7 mph 18.4 mph N/A Rain Light Rain
1:55 AM 39.6 °F 33.0 °F 26.6 °F 60% 30.02 in 10.0 mi SE 10.4 mph - N/A Rain Light Rain
2:15 AM 39.2 °F 32.5 °F 27.1 °F 62% 30.02 in 10.0 mi SSE 10.4 mph - N/A Rain Light Rain
2:35 AM 38.8 °F 31.2 °F 28.0 °F 65% 30.01 in 10.0 mi SE 12.7 mph - 0.01 in Rain Light Rain
2:55 AM 39.4 °F 32.7 °F 28.4 °F 65% 30.00 in 10.0 mi SE 10.4 mph - 0.01 in   Light Drizzle
3:15 AM 39.4 °F 32.7 °F 28.8 °F 66% 29.99 in 10.0 mi SE 10.4 mph - N/A   Overcast
3:35 AM 39.7 °F 32.3 °F 28.0 °F 63% 29.97 in 10.0 mi SE 12.7 mph - N/A   Overcast
3:55 AM 38.7 °F 32.9 °F 29.3 °F 69% 29.96 in 10.0 mi ESE 8.1 mph - N/A Rain Light Rain
4:15 AM 38.7 °F 30.9 °F 28.8 °F 68% 29.94 in 10.0 mi ESE 12.7 mph - N/A   Light Drizzle
4:35 AM 39.0 °F 31.8 °F 29.3 °F 68% 29.92 in 10.0 mi ESE 11.5 mph - N/A   Overcast
4:55 AM 39.6 °F 31.3 °F 29.1 °F 66% 29.92 in 10.0 mi SE 15.0 mph - N/A   Overcast
5:15 AM 40.1 °F 32.4 °F 29.1 °F 65% 29.91 in 10.0 mi SE 13.8 mph - N/A   Overcast
5:35 AM 40.8 °F 32.9 °F 29.1 °F 63% 29.91 in 10.0 mi SE 15.0 mph - N/A   Overcast
5:55 AM 41.7 °F 34.1 °F 28.8 °F 60% 29.90 in 10.0 mi SE 15.0 mph 23.0 mph N/A   Overcast
6:15 AM 41.9 °F 34.3 °F 28.8 °F 60% 29.89 in 10.0 mi SE 15.0 mph - N/A   Overcast
6:35 AM 42.1 °F 34.9 °F 28.6 °F 59% 29.89 in 10.0 mi SE 13.8 mph 20.7 mph N/A   Overcast
6:55 AM 42.3 °F 35.9 °F 28.9 °F 59% 29.89 in 10.0 mi SSE 11.5 mph - N/A   Mostly Cloudy
7:15 AM 43.5 °F 36.4 °F 28.6 °F 56% 29.89 in 10.0 mi SSE 15.0 mph - N/A   Scattered Clouds
7:35 AM 45.5 °F 38.6 °F 28.9 °F 52% 29.89 in 10.0 mi South 16.1 mph 21.9 mph N/A   Scattered Clouds
7:55 AM 45.7 °F 37.6 °F 30.0 °F 54% 29.89 in 10.0 mi South 21.9 mph 27.6 mph N/A   Mostly Cloudy
8:15 AM 46.8 °F - 29.1 °F 50% 29.89 in 10.0 mi South 19.6 mph 31.1 mph N/A   Overcast
8:35 AM 47.3 °F - 28.9 °F 49% 29.88 in 10.0 mi South 24.2 mph 28.8 mph N/A   Overcast
8:55 AM 48.2 °F - 29.7 °F 49% 29.88 in 10.0 mi South 19.6 mph 26.5 mph N/A   Overcast
9:15 AM 50.9 °F - 30.0 °F 45% 29.87 in 10.0 mi South 23.0 mph 32.2 mph N/A   Overcast
9:35 AM 51.3 °F - 30.2 °F 44% 29.88 in 10.0 mi South 21.9 mph 29.9 mph N/A   Overcast
9:55 AM 52.7 °F - 31.3 °F 44% 29.88 in 10.0 mi South 20.7 mph 28.8 mph N/A   Overcast
10:15 AM 52.0 °F - 32.0 °F 47% 29.87 in 10.0 mi South 21.9 mph 28.8 mph N/A   Overcast
10:35 AM 51.8 °F - 33.3 °F 49% 29.88 in 10.0 mi South 21.9 mph 29.9 mph N/A   Overcast
10:55 AM 52.0 °F - 33.6 °F 50% 29.88 in 10.0 mi South 18.4 mph 33.4 mph N/A   Overcast
11:15 AM 53.2 °F - 34.3 °F 49% 29.87 in 10.0 mi South 27.6 mph 33.4 mph N/A   Overcast
11:35 AM 53.1 °F - 35.6 °F 52% 29.87 in 10.0 mi South 21.9 mph 33.4 mph N/A   Overcast
11:55 AM 52.7 °F - 35.8 °F 53% 29.85 in 10.0 mi South 25.3 mph 29.9 mph N/A   Overcast
12:15 PM 52.9 °F - 36.0 °F 53% 29.84 in 10.0 mi South 21.9 mph 33.4 mph N/A   Overcast
12:35 PM 52.7 °F - 36.7 °F 55% 29.84 in 10.0 mi South 23.0 mph 28.8 mph N/A   Overcast
12:55 PM 53.8 °F - 37.4 °F 54% 29.82 in 10.0 mi South 24.2 mph 32.2 mph N/A   Overcast
1:15 PM 53.8 °F - 38.3 °F 56% 29.80 in 10.0 mi South 24.2 mph 33.4 mph N/A   Overcast
1:35 PM 54.3 °F - 38.5 °F 55% 29.79 in 10.0 mi South 20.7 mph 27.6 mph N/A   Overcast
1:55 PM 54.1 °F - 38.1 °F 55% 29.77 in 10.0 mi SSE 19.6 mph 31.1 mph N/A   Overcast
2:15 PM 55.0 °F - 38.5 °F 54% 29.76 in 10.0 mi South 21.9 mph 28.8 mph N/A   Overcast
2:35 PM 56.3 °F - 39.0 °F 52% 29.74 in 10.0 mi South 21.9 mph 29.9 mph N/A   Overcast
2:55 PM 57.2 °F - 39.7 °F 52% 29.72 in 10.0 mi South 23.0 mph 31.1 mph N/A   Overcast
3:15 PM 57.2 °F - 40.3 °F 53% 29.71 in 10.0 mi South 24.2 mph 33.4 mph N/A   Overcast
3:35 PM 57.2 °F - 40.5 °F 54% 29.70 in 10.0 mi South 23.0 mph 31.1 mph N/A   Overcast
3:55 PM 57.2 °F - 41.0 °F 55% 29.70 in 10.0 mi South 18.4 mph 21.9 mph N/A   Overcast
4:15 PM 57.2 °F - 40.1 °F 53% 29.69 in 10.0 mi South 18.4 mph - N/A   Overcast
4:35 PM 57.4 °F - 40.3 °F 53% 29.69 in 10.0 mi South 21.9 mph 29.9 mph N/A   Overcast
4:55 PM 57.4 °F - 40.5 °F 53% 29.69 in 10.0 mi South 20.7 mph 25.3 mph N/A   Overcast
5:15 PM 57.9 °F - 41.0 °F 53% 29.68 in 10.0 mi South 23.0 mph 29.9 mph N/A   Overcast
5:35 PM 58.1 °F - 41.2 °F 53% 29.67 in 10.0 mi South 25.3 mph 33.4 mph N/A   Overcast
5:55 PM 58.5 °F - 42.3 °F 55% 29.67 in 10.0 mi South 27.6 mph 40.3 mph N/A   Overcast
6:15 PM 58.3 °F - 43.5 °F 58% 29.65 in 10.0 mi South 29.9 mph 40.3 mph N/A   Overcast
6:35 PM 57.7 °F - 44.8 °F 62% 29.66 in 10.0 mi South 27.6 mph 35.7 mph N/A   Overcast
6:55 PM 57.2 °F - 45.5 °F 65% 29.66 in 10.0 mi South 23.0 mph 33.4 mph N/A   Overcast
7:15 PM 57.2 °F - 45.7 °F 65% 29.67 in 10.0 mi South 21.9 mph 39.1 mph N/A   Overcast
7:35 PM 56.7 °F - 46.6 °F 69% 29.68 in 10.0 mi South 23.0 mph 31.1 mph N/A   Overcast
7:55 PM 56.1 °F - 47.7 °F 73% 29.69 in 10.0 mi South 21.9 mph 32.2 mph N/A   Overcast
8:15 PM 55.4 °F - 48.4 °F 77% 29.69 in 10.0 mi South 23.0 mph 28.8 mph N/A   Overcast
8:35 PM 55.0 °F - 48.6 °F 79% 29.69 in 10.0 mi South 26.5 mph 33.4 mph N/A Thunderstorm Overcast
8:55 PM 54.9 °F - 48.2 °F 78% 29.69 in 10.0 mi South 20.7 mph 31.1 mph N/A   Overcast
9:15 PM 55.0 °F - 48.2 °F 78% 29.70 in 10.0 mi South 26.5 mph 33.4 mph N/A   Overcast
9:35 PM 55.2 °F - 48.4 °F 78% 29.70 in 10.0 mi South 25.3 mph 34.5 mph N/A   Overcast
9:55 PM 55.4 °F - 48.2 °F 77% 29.69 in 10.0 mi South 25.3 mph 33.4 mph N/A   Overcast
10:15 PM 55.6 °F - 48.6 °F 77% 29.70 in 10.0 mi South 24.2 mph 33.4 mph N/A   Overcast
10:35 PM 55.6 °F - 48.7 °F 78% 29.68 in 10.0 mi South 23.0 mph 31.1 mph N/A   Overcast
10:55 PM 55.8 °F - 49.1 °F 78% 29.68 in 10.0 mi South 23.0 mph 31.1 mph N/A Thunderstorm Overcast
11:15 PM 55.9 °F - 49.5 °F 79% 29.70 in 10.0 mi South 17.3 mph 27.6 mph N/A Thunderstorm Thunderstorm
11:35 PM 56.3 °F - 50.4 °F 80% 29.74 in 7.0 mi SSW 20.7 mph 31.1 mph N/A Rain , Thunderstorm Rain
11:55 PM 55.9 °F - 52.0 °F 87% 29.71 in 5.0 mi SSW 20.7 mph 26.5 mph 0.03 in Rain Rain